sensor_id;sensor_type;location;lat;lon;timestamp;P1;durP1;ratioP1;P2;durP2;ratioP2
11598;SDS011;5855;48.840;9.188;2023-04-15T00:01:25;8.52;;;5.13;;
11598;SDS011;5855;48.840;9.188;2023-04-15T00:03:53;8.45;;;5.18;;
11598;SDS011;5855;48.840;9.188;2023-04-15T00:06:21;8.15;;;5.25;;
11598;SDS011;5855;48.840;9.188;2023-04-15T00:08:49;7.32;;;4.78;;
11598;SDS011;5855;48.840;9.188;2023-04-15T00:11:16;7.10;;;4.97;;
11598;SDS011;5855;48.840;9.188;2023-04-15T00:13:45;5.15;;;3.90;;
11598;SDS011;5855;48.840;9.188;2023-04-15T00:16:11;7.15;;;4.07;;
11598;SDS011;5855;48.840;9.188;2023-04-15T00:18:38;7.30;;;4.15;;
11598;SDS011;5855;48.840;9.188;2023-04-15T00:21:05;6.35;;;4.30;;
11598;SDS011;5855;48.840;9.188;2023-04-15T00:23:32;6.43;;;3.75;;
11598;SDS011;5855;48.840;9.188;2023-04-15T00:26:01;5.93;;;3.90;;
11598;SDS011;5855;48.840;9.188;2023-04-15T00:28:28;6.75;;;3.92;;
11598;SDS011;5855;48.840;9.188;2023-04-15T00:30:56;6.00;;;4.57;;
11598;SDS011;5855;48.840;9.188;2023-04-15T00:33:23;5.78;;;4.32;;
11598;SDS011;5855;48.840;9.188;2023-04-15T00:35:50;6.38;;;4.63;;
11598;SDS011;5855;48.840;9.188;2023-04-15T00:38:17;6.82;;;4.75;;
11598;SDS011;5855;48.840;9.188;2023-04-15T00:40:44;5.90;;;4.25;;
11598;SDS011;5855;48.840;9.188;2023-04-15T00:43:12;8.43;;;4.43;;
11598;SDS011;5855;48.840;9.188;2023-04-15T00:45:40;7.55;;;4.63;;
11598;SDS011;5855;48.840;9.188;2023-04-15T00:48:07;7.78;;;3.92;;
11598;SDS011;5855;48.840;9.188;2023-04-15T00:50:34;6.25;;;4.05;;
11598;SDS011;5855;48.840;9.188;2023-04-15T00:53:01;7.68;;;4.30;;
11598;SDS011;5855;48.840;9.188;2023-04-15T00:55:28;8.30;;;4.40;;
11598;SDS011;5855;48.840;9.188;2023-04-15T00:57:55;7.03;;;4.03;;
11598;SDS011;5855;48.840;9.188;2023-04-15T01:00:23;7.00;;;4.38;;
11598;SDS011;5855;48.840;9.188;2023-04-15T01:02:50;5.47;;;3.75;;
11598;SDS011;5855;48.840;9.188;2023-04-15T01:05:17;6.13;;;4.35;;
11598;SDS011;5855;48.840;9.188;2023-04-15T01:07:45;5.90;;;4.45;;
11598;SDS011;5855;48.840;9.188;2023-04-15T01:10:12;7.63;;;3.97;;
11598;SDS011;5855;48.840;9.188;2023-04-15T01:12:39;7.43;;;4.57;;
11598;SDS011;5855;48.840;9.188;2023-04-15T01:15:07;5.68;;;4.20;;
11598;SDS011;5855;48.840;9.188;2023-04-15T01:17:36;8.48;;;4.63;;
11598;SDS011;5855;48.840;9.188;2023-04-15T01:20:04;7.38;;;4.68;;
11598;SDS011;5855;48.840;9.188;2023-04-15T01:22:34;5.88;;;4.15;;
11598;SDS011;5855;48.840;9.188;2023-04-15T01:25:03;5.68;;;4.10;;
11598;SDS011;5855;48.840;9.188;2023-04-15T01:27:36;5.55;;;4.00;;
11598;SDS011;5855;48.840;9.188;2023-04-15T01:30:05;6.43;;;4.20;;
11598;SDS011;5855;48.840;9.188;2023-04-15T01:32:33;7.80;;;4.28;;
11598;SDS011;5855;48.840;9.188;2023-04-15T01:34:59;7.40;;;3.97;;
11598;SDS011;5855;48.840;9.188;2023-04-15T01:37:26;6.05;;;4.30;;
11598;SDS011;5855;48.840;9.188;2023-04-15T01:39:54;7.00;;;4.65;;
11598;SDS011;5855;48.840;9.188;2023-04-15T01:42:22;8.27;;;4.55;;
11598;SDS011;5855;48.840;9.188;2023-04-15T01:44:50;8.05;;;4.95;;
11598;SDS011;5855;48.840;9.188;2023-04-15T01:47:17;7.05;;;4.60;;
11598;SDS011;5855;48.840;9.188;2023-04-15T01:49:44;7.03;;;4.82;;
11598;SDS011;5855;48.840;9.188;2023-04-15T01:52:11;9.30;;;4.45;;
11598;SDS011;5855;48.840;9.188;2023-04-15T01:54:38;5.43;;;4.20;;
11598;SDS011;5855;48.840;9.188;2023-04-15T01:57:05;7.35;;;4.90;;
11598;SDS011;5855;48.840;9.188;2023-04-15T01:59:31;7.75;;;4.35;;
11598;SDS011;5855;48.840;9.188;2023-04-15T02:02:00;7.13;;;4.78;;
11598;SDS011;5855;48.840;9.188;2023-04-15T02:04:26;8.70;;;4.55;;
11598;SDS011;5855;48.840;9.188;2023-04-15T02:06:53;4.78;;;4.00;;
11598;SDS011;5855;48.840;9.188;2023-04-15T02:09:20;6.97;;;4.50;;
11598;SDS011;5855;48.840;9.188;2023-04-15T02:11:47;6.10;;;4.32;;
11598;SDS011;5855;48.840;9.188;2023-04-15T02:14:17;7.07;;;5.03;;
11598;SDS011;5855;48.840;9.188;2023-04-15T02:16:43;7.70;;;4.55;;
11598;SDS011;5855;48.840;9.188;2023-04-15T02:19:11;9.65;;;4.80;;
11598;SDS011;5855;48.840;9.188;2023-04-15T02:21:39;7.28;;;4.70;;
11598;SDS011;5855;48.840;9.188;2023-04-15T02:24:06;9.30;;;4.82;;
11598;SDS011;5855;48.840;9.188;2023-04-15T02:26:33;5.80;;;4.53;;
11598;SDS011;5855;48.840;9.188;2023-04-15T02:29:03;8.98;;;5.10;;
11598;SDS011;5855;48.840;9.188;2023-04-15T02:31:30;8.20;;;5.40;;
11598;SDS011;5855;48.840;9.188;2023-04-15T02:34:00;12.45;;;5.70;;
11598;SDS011;5855;48.840;9.188;2023-04-15T02:36:29;7.53;;;4.82;;
11598;SDS011;5855;48.840;9.188;2023-04-15T02:38:56;6.53;;;4.72;;
11598;SDS011;5855;48.840;9.188;2023-04-15T02:41:23;8.63;;;4.65;;
11598;SDS011;5855;48.840;9.188;2023-04-15T02:43:52;5.22;;;3.92;;
11598;SDS011;5855;48.840;9.188;2023-04-15T02:46:19;7.47;;;4.55;;
11598;SDS011;5855;48.840;9.188;2023-04-15T02:48:46;7.00;;;3.90;;
11598;SDS011;5855;48.840;9.188;2023-04-15T02:51:14;6.72;;;3.85;;
11598;SDS011;5855;48.840;9.188;2023-04-15T02:53:44;7.57;;;4.00;;
11598;SDS011;5855;48.840;9.188;2023-04-15T02:56:12;6.30;;;3.83;;
11598;SDS011;5855;48.840;9.188;2023-04-15T02:58:43;5.13;;;3.70;;
11598;SDS011;5855;48.840;9.188;2023-04-15T03:01:10;6.10;;;3.78;;
11598;SDS011;5855;48.840;9.188;2023-04-15T03:03:37;5.45;;;3.83;;
11598;SDS011;5855;48.840;9.188;2023-04-15T03:06:04;6.80;;;3.72;;
11598;SDS011;5855;48.840;9.188;2023-04-15T03:08:32;4.63;;;3.33;;
11598;SDS011;5855;48.840;9.188;2023-04-15T03:11:01;5.75;;;3.63;;
11598;SDS011;5855;48.840;9.188;2023-04-15T03:13:27;6.88;;;3.70;;
11598;SDS011;5855;48.840;9.188;2023-04-15T03:15:54;5.20;;;3.38;;
11598;SDS011;5855;48.840;9.188;2023-04-15T03:18:21;6.25;;;3.60;;
11598;SDS011;5855;48.840;9.188;2023-04-15T03:20:48;6.60;;;3.50;;
11598;SDS011;5855;48.840;9.188;2023-04-15T03:23:14;6.50;;;4.18;;
11598;SDS011;5855;48.840;9.188;2023-04-15T03:25:41;6.95;;;4.43;;
11598;SDS011;5855;48.840;9.188;2023-04-15T03:28:11;5.00;;;4.50;;
11598;SDS011;5855;48.840;9.188;2023-04-15T03:30:40;7.05;;;4.72;;
11598;SDS011;5855;48.840;9.188;2023-04-15T03:33:07;7.20;;;4.85;;
11598;SDS011;5855;48.840;9.188;2023-04-15T03:35:34;6.43;;;4.40;;
11598;SDS011;5855;48.840;9.188;2023-04-15T03:38:00;6.45;;;4.50;;
11598;SDS011;5855;48.840;9.188;2023-04-15T03:40:27;6.15;;;4.65;;
11598;SDS011;5855;48.840;9.188;2023-04-15T03:42:54;7.35;;;4.20;;
11598;SDS011;5855;48.840;9.188;2023-04-15T03:45:22;6.80;;;4.60;;
11598;SDS011;5855;48.840;9.188;2023-04-15T03:47:49;6.00;;;4.38;;
11598;SDS011;5855;48.840;9.188;2023-04-15T03:50:16;8.15;;;4.50;;
11598;SDS011;5855;48.840;9.188;2023-04-15T03:52:43;5.13;;;3.92;;
11598;SDS011;5855;48.840;9.188;2023-04-15T03:55:10;4.90;;;3.70;;
11598;SDS011;5855;48.840;9.188;2023-04-15T03:57:36;5.72;;;3.85;;
11598;SDS011;5855;48.840;9.188;2023-04-15T04:00:04;4.82;;;3.60;;
11598;SDS011;5855;48.840;9.188;2023-04-15T04:02:32;4.90;;;3.65;;
11598;SDS011;5855;48.840;9.188;2023-04-15T04:04:59;4.28;;;3.20;;
11598;SDS011;5855;48.840;9.188;2023-04-15T04:07:26;6.40;;;3.65;;
11598;SDS011;5855;48.840;9.188;2023-04-15T04:09:53;7.20;;;3.70;;
11598;SDS011;5855;48.840;9.188;2023-04-15T04:12:21;7.57;;;4.13;;
11598;SDS011;5855;48.840;9.188;2023-04-15T04:14:48;6.05;;;4.03;;
11598;SDS011;5855;48.840;9.188;2023-04-15T04:17:15;4.50;;;3.72;;
11598;SDS011;5855;48.840;9.188;2023-04-15T04:19:43;6.28;;;3.80;;
11598;SDS011;5855;48.840;9.188;2023-04-15T04:22:10;5.93;;;3.95;;
11598;SDS011;5855;48.840;9.188;2023-04-15T04:24:37;5.93;;;4.18;;
11598;SDS011;5855;48.840;9.188;2023-04-15T04:27:04;7.78;;;4.15;;
11598;SDS011;5855;48.840;9.188;2023-04-15T04:29:30;5.50;;;4.30;;
11598;SDS011;5855;48.840;9.188;2023-04-15T04:31:57;6.55;;;3.95;;
11598;SDS011;5855;48.840;9.188;2023-04-15T04:34:24;5.88;;;3.90;;
11598;SDS011;5855;48.840;9.188;2023-04-15T04:36:52;5.85;;;4.47;;
11598;SDS011;5855;48.840;9.188;2023-04-15T04:39:19;8.23;;;4.78;;
11598;SDS011;5855;48.840;9.188;2023-04-15T04:41:46;6.80;;;4.55;;
11598;SDS011;5855;48.840;9.188;2023-04-15T04:44:13;6.13;;;4.45;;
11598;SDS011;5855;48.840;9.188;2023-04-15T04:46:40;9.38;;;6.80;;
11598;SDS011;5855;48.840;9.188;2023-04-15T04:49:06;8.55;;;5.63;;
11598;SDS011;5855;48.840;9.188;2023-04-15T04:51:33;6.03;;;4.65;;
11598;SDS011;5855;48.840;9.188;2023-04-15T04:54:01;7.97;;;4.95;;
11598;SDS011;5855;48.840;9.188;2023-04-15T04:56:29;10.27;;;5.10;;
11598;SDS011;5855;48.840;9.188;2023-04-15T04:58:55;8.93;;;4.78;;
11598;SDS011;5855;48.840;9.188;2023-04-15T05:01:22;6.65;;;4.47;;
11598;SDS011;5855;48.840;9.188;2023-04-15T05:03:50;8.55;;;5.35;;
11598;SDS011;5855;48.840;9.188;2023-04-15T05:06:17;9.27;;;5.30;;
11598;SDS011;5855;48.840;9.188;2023-04-15T05:08:44;9.40;;;6.00;;
11598;SDS011;5855;48.840;9.188;2023-04-15T05:11:13;9.68;;;6.43;;
11598;SDS011;5855;48.840;9.188;2023-04-15T05:13:40;9.85;;;6.30;;
11598;SDS011;5855;48.840;9.188;2023-04-15T05:16:07;12.20;;;7.63;;
11598;SDS011;5855;48.840;9.188;2023-04-15T05:18:34;11.50;;;6.90;;
11598;SDS011;5855;48.840;9.188;2023-04-15T05:21:00;11.20;;;5.93;;
11598;SDS011;5855;48.840;9.188;2023-04-15T05:23:27;9.60;;;6.07;;
11598;SDS011;5855;48.840;9.188;2023-04-15T05:25:55;7.13;;;4.85;;
11598;SDS011;5855;48.840;9.188;2023-04-15T05:28:23;7.88;;;5.47;;
11598;SDS011;5855;48.840;9.188;2023-04-15T05:30:50;6.65;;;5.20;;
11598;SDS011;5855;48.840;9.188;2023-04-15T05:33:16;8.38;;;5.47;;
11598;SDS011;5855;48.840;9.188;2023-04-15T05:35:43;8.35;;;5.70;;
11598;SDS011;5855;48.840;9.188;2023-04-15T05:38:10;7.40;;;5.60;;
11598;SDS011;5855;48.840;9.188;2023-04-15T05:40:37;8.48;;;5.50;;
11598;SDS011;5855;48.840;9.188;2023-04-15T05:43:04;8.30;;;5.13;;
11598;SDS011;5855;48.840;9.188;2023-04-15T05:45:32;8.60;;;5.65;;
11598;SDS011;5855;48.840;9.188;2023-04-15T05:47:59;10.35;;;5.32;;
11598;SDS011;5855;48.840;9.188;2023-04-15T05:50:26;6.18;;;4.95;;
11598;SDS011;5855;48.840;9.188;2023-04-15T05:52:53;8.10;;;5.15;;
11598;SDS011;5855;48.840;9.188;2023-04-15T05:55:20;9.43;;;5.25;;
11598;SDS011;5855;48.840;9.188;2023-04-15T05:57:47;6.50;;;5.32;;
11598;SDS011;5855;48.840;9.188;2023-04-15T06:00:14;8.07;;;5.10;;
11598;SDS011;5855;48.840;9.188;2023-04-15T06:02:42;6.78;;;5.03;;
11598;SDS011;5855;48.840;9.188;2023-04-15T06:05:09;8.98;;;5.28;;
11598;SDS011;5855;48.840;9.188;2023-04-15T06:07:36;7.93;;;5.30;;
11598;SDS011;5855;48.840;9.188;2023-04-15T06:10:03;7.65;;;4.88;;
11598;SDS011;5855;48.840;9.188;2023-04-15T06:12:32;9.82;;;5.68;;
11598;SDS011;5855;48.840;9.188;2023-04-15T06:14:58;8.10;;;5.40;;
11598;SDS011;5855;48.840;9.188;2023-04-15T06:17:25;8.60;;;5.20;;
11598;SDS011;5855;48.840;9.188;2023-04-15T06:19:54;9.60;;;5.38;;
11598;SDS011;5855;48.840;9.188;2023-04-15T06:22:20;9.43;;;5.82;;
11598;SDS011;5855;48.840;9.188;2023-04-15T06:24:47;9.23;;;5.07;;
11598;SDS011;5855;48.840;9.188;2023-04-15T06:27:14;9.77;;;5.15;;
11598;SDS011;5855;48.840;9.188;2023-04-15T06:29:41;8.43;;;5.32;;
11598;SDS011;5855;48.840;9.188;2023-04-15T06:32:08;8.63;;;5.25;;
11598;SDS011;5855;48.840;9.188;2023-04-15T06:34:35;8.95;;;5.15;;
11598;SDS011;5855;48.840;9.188;2023-04-15T06:37:04;7.03;;;4.72;;
11598;SDS011;5855;48.840;9.188;2023-04-15T06:39:30;7.60;;;4.82;;
11598;SDS011;5855;48.840;9.188;2023-04-15T06:41:57;7.30;;;4.68;;
11598;SDS011;5855;48.840;9.188;2023-04-15T06:44:25;7.53;;;5.07;;
11598;SDS011;5855;48.840;9.188;2023-04-15T06:46:52;7.72;;;4.38;;
11598;SDS011;5855;48.840;9.188;2023-04-15T06:49:19;6.63;;;4.28;;
11598;SDS011;5855;48.840;9.188;2023-04-15T06:51:45;8.30;;;4.07;;
11598;SDS011;5855;48.840;9.188;2023-04-15T06:54:14;7.38;;;3.85;;
11598;SDS011;5855;48.840;9.188;2023-04-15T06:56:40;6.15;;;4.20;;
11598;SDS011;5855;48.840;9.188;2023-04-15T06:59:08;8.98;;;4.18;;
11598;SDS011;5855;48.840;9.188;2023-04-15T07:01:34;7.82;;;4.20;;
11598;SDS011;5855;48.840;9.188;2023-04-15T07:04:01;7.60;;;4.40;;
11598;SDS011;5855;48.840;9.188;2023-04-15T07:06:28;5.68;;;4.05;;
11598;SDS011;5855;48.840;9.188;2023-04-15T07:08:55;5.35;;;3.72;;
11598;SDS011;5855;48.840;9.188;2023-04-15T07:11:24;8.10;;;3.97;;
11598;SDS011;5855;48.840;9.188;2023-04-15T07:13:51;7.38;;;4.07;;
11598;SDS011;5855;48.840;9.188;2023-04-15T07:16:18;7.53;;;3.80;;
11598;SDS011;5855;48.840;9.188;2023-04-15T07:18:45;6.72;;;3.80;;
11598;SDS011;5855;48.840;9.188;2023-04-15T07:21:12;5.93;;;3.70;;
11598;SDS011;5855;48.840;9.188;2023-04-15T07:23:38;7.65;;;3.83;;
11598;SDS011;5855;48.840;9.188;2023-04-15T07:26:07;6.90;;;3.70;;
11598;SDS011;5855;48.840;9.188;2023-04-15T07:28:36;6.25;;;4.00;;
11598;SDS011;5855;48.840;9.188;2023-04-15T07:31:03;6.88;;;3.80;;
11598;SDS011;5855;48.840;9.188;2023-04-15T07:33:30;5.03;;;3.95;;
11598;SDS011;5855;48.840;9.188;2023-04-15T07:35:57;6.05;;;3.55;;
11598;SDS011;5855;48.840;9.188;2023-04-15T07:38:23;6.63;;;4.25;;
11598;SDS011;5855;48.840;9.188;2023-04-15T07:40:50;6.97;;;4.00;;
11598;SDS011;5855;48.840;9.188;2023-04-15T07:43:18;5.90;;;3.55;;
11598;SDS011;5855;48.840;9.188;2023-04-15T07:45:46;8.27;;;4.10;;
11598;SDS011;5855;48.840;9.188;2023-04-15T07:48:13;8.00;;;4.03;;
11598;SDS011;5855;48.840;9.188;2023-04-15T07:50:42;8.48;;;4.55;;
11598;SDS011;5855;48.840;9.188;2023-04-15T07:53:09;7.22;;;3.97;;
11598;SDS011;5855;48.840;9.188;2023-04-15T07:55:35;6.80;;;3.83;;
11598;SDS011;5855;48.840;9.188;2023-04-15T07:58:02;5.93;;;3.90;;
11598;SDS011;5855;48.840;9.188;2023-04-15T08:00:30;7.38;;;3.80;;
11598;SDS011;5855;48.840;9.188;2023-04-15T08:02:58;6.57;;;3.83;;
11598;SDS011;5855;48.840;9.188;2023-04-15T08:05:25;5.82;;;3.42;;
11598;SDS011;5855;48.840;9.188;2023-04-15T08:07:52;5.53;;;3.90;;
11598;SDS011;5855;48.840;9.188;2023-04-15T08:10:19;5.25;;;3.95;;
11598;SDS011;5855;48.840;9.188;2023-04-15T08:12:46;7.25;;;3.97;;
11598;SDS011;5855;48.840;9.188;2023-04-15T08:15:14;5.93;;;3.83;;
11598;SDS011;5855;48.840;9.188;2023-04-15T08:17:42;6.20;;;3.88;;
11598;SDS011;5855;48.840;9.188;2023-04-15T08:20:10;6.25;;;4.00;;
11598;SDS011;5855;48.840;9.188;2023-04-15T08:22:38;5.60;;;3.67;;
11598;SDS011;5855;48.840;9.188;2023-04-15T08:25:06;5.45;;;3.35;;
11598;SDS011;5855;48.840;9.188;2023-04-15T08:27:33;6.05;;;3.60;;
11598;SDS011;5855;48.840;9.188;2023-04-15T08:30:00;6.38;;;3.60;;
11598;SDS011;5855;48.840;9.188;2023-04-15T08:32:27;5.57;;;3.40;;
11598;SDS011;5855;48.840;9.188;2023-04-15T08:34:54;7.28;;;3.28;;
11598;SDS011;5855;48.840;9.188;2023-04-15T08:37:22;7.85;;;3.88;;
11598;SDS011;5855;48.840;9.188;2023-04-15T08:39:50;5.22;;;3.40;;
11598;SDS011;5855;48.840;9.188;2023-04-15T08:42:18;5.80;;;2.92;;
11598;SDS011;5855;48.840;9.188;2023-04-15T08:44:52;4.13;;;2.67;;
11598;SDS011;5855;48.840;9.188;2023-04-15T08:47:20;4.80;;;3.20;;
11598;SDS011;5855;48.840;9.188;2023-04-15T08:49:51;4.82;;;2.70;;
11598;SDS011;5855;48.840;9.188;2023-04-15T08:52:24;4.78;;;2.70;;
11598;SDS011;5855;48.840;9.188;2023-04-15T08:54:51;3.90;;;2.67;;
11598;SDS011;5855;48.840;9.188;2023-04-15T08:57:22;7.65;;;3.10;;
11598;SDS011;5855;48.840;9.188;2023-04-15T08:59:51;4.32;;;3.05;;
11598;SDS011;5855;48.840;9.188;2023-04-15T09:02:18;9.40;;;3.10;;
11598;SDS011;5855;48.840;9.188;2023-04-15T09:04:46;5.20;;;3.03;;
11598;SDS011;5855;48.840;9.188;2023-04-15T09:07:13;6.80;;;3.50;;
11598;SDS011;5855;48.840;9.188;2023-04-15T09:09:41;5.32;;;3.00;;
11598;SDS011;5855;48.840;9.188;2023-04-15T09:12:08;5.43;;;2.97;;
11598;SDS011;5855;48.840;9.188;2023-04-15T09:14:36;6.80;;;3.10;;
11598;SDS011;5855;48.840;9.188;2023-04-15T09:17:05;4.47;;;3.00;;
11598;SDS011;5855;48.840;9.188;2023-04-15T09:19:35;5.45;;;3.10;;
11598;SDS011;5855;48.840;9.188;2023-04-15T09:22:02;4.70;;;2.53;;
11598;SDS011;5855;48.840;9.188;2023-04-15T09:24:34;3.95;;;2.70;;
11598;SDS011;5855;48.840;9.188;2023-04-15T09:27:04;4.47;;;2.55;;
11598;SDS011;5855;48.840;9.188;2023-04-15T09:29:31;4.40;;;2.30;;
11598;SDS011;5855;48.840;9.188;2023-04-15T09:32:08;2.92;;;2.15;;
11598;SDS011;5855;48.840;9.188;2023-04-15T09:34:35;4.80;;;1.98;;
11598;SDS011;5855;48.840;9.188;2023-04-15T09:37:02;2.42;;;1.83;;
11598;SDS011;5855;48.840;9.188;2023-04-15T09:39:43;2.92;;;1.52;;
11598;SDS011;5855;48.840;9.188;2023-04-15T09:42:13;2.90;;;1.83;;
11598;SDS011;5855;48.840;9.188;2023-04-15T09:44:41;3.67;;;2.20;;
11598;SDS011;5855;48.840;9.188;2023-04-15T09:47:09;3.67;;;2.00;;
11598;SDS011;5855;48.840;9.188;2023-04-15T09:49:54;2.55;;;1.83;;
11598;SDS011;5855;48.840;9.188;2023-04-15T09:52:21;5.72;;;2.50;;
11598;SDS011;5855;48.840;9.188;2023-04-15T09:54:48;4.22;;;2.08;;
11598;SDS011;5855;48.840;9.188;2023-04-15T09:57:20;2.65;;;1.92;;
11598;SDS011;5855;48.840;9.188;2023-04-15T09:59:47;4.78;;;2.10;;
11598;SDS011;5855;48.840;9.188;2023-04-15T10:02:14;2.92;;;2.10;;
11598;SDS011;5855;48.840;9.188;2023-04-15T10:04:43;3.83;;;2.22;;
11598;SDS011;5855;48.840;9.188;2023-04-15T10:07:13;5.25;;;2.13;;
11598;SDS011;5855;48.840;9.188;2023-04-15T10:09:42;4.97;;;2.10;;
11598;SDS011;5855;48.840;9.188;2023-04-15T10:12:11;3.72;;;2.25;;
11598;SDS011;5855;48.840;9.188;2023-04-15T10:14:39;3.53;;;1.83;;
11598;SDS011;5855;48.840;9.188;2023-04-15T10:17:09;3.35;;;2.25;;
11598;SDS011;5855;48.840;9.188;2023-04-15T10:19:37;4.28;;;2.00;;
11598;SDS011;5855;48.840;9.188;2023-04-15T10:22:04;4.03;;;2.33;;
11598;SDS011;5855;48.840;9.188;2023-04-15T10:24:32;3.20;;;2.33;;
11598;SDS011;5855;48.840;9.188;2023-04-15T10:26:59;3.97;;;2.20;;
11598;SDS011;5855;48.840;9.188;2023-04-15T10:29:27;3.50;;;2.00;;
11598;SDS011;5855;48.840;9.188;2023-04-15T10:31:56;5.82;;;2.25;;
11598;SDS011;5855;48.840;9.188;2023-04-15T10:34:24;3.88;;;2.10;;
11598;SDS011;5855;48.840;9.188;2023-04-15T10:36:54;5.82;;;2.10;;
11598;SDS011;5855;48.840;9.188;2023-04-15T10:39:40;3.97;;;2.10;;
11598;SDS011;5855;48.840;9.188;2023-04-15T10:42:09;5.55;;;2.30;;
11598;SDS011;5855;48.840;9.188;2023-04-15T10:44:36;4.50;;;2.30;;
11598;SDS011;5855;48.840;9.188;2023-04-15T10:47:08;4.72;;;2.20;;
11598;SDS011;5855;48.840;9.188;2023-04-15T10:49:41;3.45;;;2.20;;
11598;SDS011;5855;48.840;9.188;2023-04-15T10:52:10;6.07;;;2.38;;
11598;SDS011;5855;48.840;9.188;2023-04-15T10:54:37;4.38;;;2.40;;
11598;SDS011;5855;48.840;9.188;2023-04-15T10:57:08;4.75;;;2.28;;
11598;SDS011;5855;48.840;9.188;2023-04-15T11:02:38;5.35;;;2.17;;
11598;SDS011;5855;48.840;9.188;2023-04-15T11:05:06;4.85;;;2.20;;
11598;SDS011;5855;48.840;9.188;2023-04-15T11:07:34;4.50;;;2.47;;
11598;SDS011;5855;48.840;9.188;2023-04-15T11:10:02;4.57;;;2.65;;
11598;SDS011;5855;48.840;9.188;2023-04-15T11:12:33;5.00;;;2.55;;
11598;SDS011;5855;48.840;9.188;2023-04-15T11:17:54;4.50;;;2.72;;
11598;SDS011;5855;48.840;9.188;2023-04-15T11:20:21;5.05;;;2.60;;
11598;SDS011;5855;48.840;9.188;2023-04-15T11:22:49;5.75;;;3.17;;
11598;SDS011;5855;48.840;9.188;2023-04-15T11:25:23;4.15;;;2.38;;
11598;SDS011;5855;48.840;9.188;2023-04-15T11:27:50;5.38;;;2.80;;
11598;SDS011;5855;48.840;9.188;2023-04-15T11:30:19;4.68;;;2.50;;
11598;SDS011;5855;48.840;9.188;2023-04-15T11:32:47;4.47;;;2.35;;
11598;SDS011;5855;48.840;9.188;2023-04-15T11:35:16;3.58;;;2.42;;
11598;SDS011;5855;48.840;9.188;2023-04-15T11:37:44;3.90;;;2.40;;
11598;SDS011;5855;48.840;9.188;2023-04-15T11:40:12;3.83;;;2.63;;
11598;SDS011;5855;48.840;9.188;2023-04-15T11:42:41;5.03;;;2.65;;
11598;SDS011;5855;48.840;9.188;2023-04-15T11:45:08;5.25;;;2.90;;
11598;SDS011;5855;48.840;9.188;2023-04-15T11:47:37;6.47;;;2.97;;
11598;SDS011;5855;48.840;9.188;2023-04-15T11:50:13;5.13;;;3.10;;
11598;SDS011;5855;48.840;9.188;2023-04-15T11:52:52;5.07;;;3.03;;
11598;SDS011;5855;48.840;9.188;2023-04-15T11:55:19;4.05;;;2.92;;
11598;SDS011;5855;48.840;9.188;2023-04-15T11:57:46;4.85;;;2.70;;
11598;SDS011;5855;48.840;9.188;2023-04-15T12:00:13;4.13;;;2.38;;
11598;SDS011;5855;48.840;9.188;2023-04-15T12:02:40;4.38;;;2.20;;
11598;SDS011;5855;48.840;9.188;2023-04-15T12:05:07;4.43;;;2.30;;
11598;SDS011;5855;48.840;9.188;2023-04-15T12:10:25;3.05;;;2.00;;
11598;SDS011;5855;48.840;9.188;2023-04-15T12:12:51;3.25;;;2.08;;
11598;SDS011;5855;48.840;9.188;2023-04-15T12:15:20;4.90;;;2.45;;
11598;SDS011;5855;48.840;9.188;2023-04-15T12:17:48;6.63;;;2.40;;
11598;SDS011;5855;48.840;9.188;2023-04-15T12:20:19;4.45;;;2.30;;
11598;SDS011;5855;48.840;9.188;2023-04-15T12:22:50;5.22;;;2.60;;
11598;SDS011;5855;48.840;9.188;2023-04-15T12:25:18;3.47;;;2.83;;
11598;SDS011;5855;48.840;9.188;2023-04-15T12:27:59;3.75;;;2.58;;
11598;SDS011;5855;48.840;9.188;2023-04-15T12:30:26;6.38;;;3.28;;
11598;SDS011;5855;48.840;9.188;2023-04-15T12:32:53;5.60;;;2.60;;
11598;SDS011;5855;48.840;9.188;2023-04-15T12:35:20;6.20;;;3.00;;
11598;SDS011;5855;48.840;9.188;2023-04-15T12:37:47;3.38;;;2.78;;
11598;SDS011;5855;48.840;9.188;2023-04-15T12:40:16;7.22;;;3.05;;
11598;SDS011;5855;48.840;9.188;2023-04-15T12:42:45;3.50;;;2.60;;
11598;SDS011;5855;48.840;9.188;2023-04-15T12:45:12;13.02;;;3.53;;
11598;SDS011;5855;48.840;9.188;2023-04-15T12:47:39;3.33;;;2.40;;
11598;SDS011;5855;48.840;9.188;2023-04-15T12:50:06;3.85;;;2.30;;
11598;SDS011;5855;48.840;9.188;2023-04-15T12:52:33;3.28;;;2.38;;
11598;SDS011;5855;48.840;9.188;2023-04-15T12:55:00;2.50;;;2.30;;
11598;SDS011;5855;48.840;9.188;2023-04-15T12:57:28;3.22;;;2.28;;
11598;SDS011;5855;48.840;9.188;2023-04-15T12:59:55;3.78;;;2.45;;
11598;SDS011;5855;48.840;9.188;2023-04-15T13:02:22;3.33;;;2.28;;
11598;SDS011;5855;48.840;9.188;2023-04-15T13:04:49;3.88;;;2.10;;
11598;SDS011;5855;48.840;9.188;2023-04-15T13:07:16;3.17;;;2.17;;
11598;SDS011;5855;48.840;9.188;2023-04-15T13:09:43;3.22;;;2.20;;
11598;SDS011;5855;48.840;9.188;2023-04-15T13:12:10;3.45;;;1.98;;
11598;SDS011;5855;48.840;9.188;2023-04-15T13:14:39;3.78;;;1.90;;
11598;SDS011;5855;48.840;9.188;2023-04-15T13:17:06;2.28;;;1.75;;
11598;SDS011;5855;48.840;9.188;2023-04-15T13:19:34;4.00;;;2.00;;
11598;SDS011;5855;48.840;9.188;2023-04-15T13:22:01;4.47;;;1.90;;
11598;SDS011;5855;48.840;9.188;2023-04-15T13:24:27;4.13;;;1.88;;
11598;SDS011;5855;48.840;9.188;2023-04-15T13:26:54;2.75;;;1.90;;
11598;SDS011;5855;48.840;9.188;2023-04-15T13:29:23;3.65;;;2.00;;
11598;SDS011;5855;48.840;9.188;2023-04-15T13:31:51;2.35;;;1.50;;
11598;SDS011;5855;48.840;9.188;2023-04-15T13:34:18;3.30;;;1.40;;
11598;SDS011;5855;48.840;9.188;2023-04-15T13:36:44;3.15;;;1.30;;
11598;SDS011;5855;48.840;9.188;2023-04-15T13:39:12;2.10;;;1.27;;
11598;SDS011;5855;48.840;9.188;2023-04-15T13:41:39;2.30;;;1.10;;
11598;SDS011;5855;48.840;9.188;2023-04-15T13:44:06;2.45;;;0.93;;
11598;SDS011;5855;48.840;9.188;2023-04-15T13:46:33;2.10;;;1.00;;
11598;SDS011;5855;48.840;9.188;2023-04-15T13:49:01;2.60;;;1.13;;
11598;SDS011;5855;48.840;9.188;2023-04-15T13:51:28;1.52;;;0.90;;
11598;SDS011;5855;48.840;9.188;2023-04-15T13:53:55;2.28;;;1.00;;
11598;SDS011;5855;48.840;9.188;2023-04-15T13:56:22;7.63;;;1.20;;
11598;SDS011;5855;48.840;9.188;2023-04-15T13:58:50;1.98;;;1.10;;
11598;SDS011;5855;48.840;9.188;2023-04-15T14:01:18;1.23;;;1.10;;
11598;SDS011;5855;48.840;9.188;2023-04-15T14:03:45;1.50;;;0.90;;
11598;SDS011;5855;48.840;9.188;2023-04-15T14:06:13;1.92;;;1.10;;
11598;SDS011;5855;48.840;9.188;2023-04-15T14:08:40;1.02;;;1.00;;
11598;SDS011;5855;48.840;9.188;2023-04-15T14:11:07;1.92;;;1.20;;
11598;SDS011;5855;48.840;9.188;2023-04-15T14:13:34;4.00;;;1.15;;
11598;SDS011;5855;48.840;9.188;2023-04-15T14:16:01;2.10;;;1.08;;
11598;SDS011;5855;48.840;9.188;2023-04-15T14:18:28;1.73;;;1.15;;
11598;SDS011;5855;48.840;9.188;2023-04-15T14:20:55;1.45;;;1.10;;
11598;SDS011;5855;48.840;9.188;2023-04-15T14:23:23;2.50;;;1.20;;
11598;SDS011;5855;48.840;9.188;2023-04-15T14:25:50;2.25;;;0.95;;
11598;SDS011;5855;48.840;9.188;2023-04-15T14:28:17;2.05;;;1.40;;
11598;SDS011;5855;48.840;9.188;2023-04-15T14:30:44;1.13;;;1.02;;
11598;SDS011;5855;48.840;9.188;2023-04-15T14:33:10;2.55;;;1.15;;
11598;SDS011;5855;48.840;9.188;2023-04-15T14:35:37;3.63;;;1.45;;
11598;SDS011;5855;48.840;9.188;2023-04-15T14:38:04;2.13;;;1.70;;
11598;SDS011;5855;48.840;9.188;2023-04-15T14:40:35;2.50;;;1.40;;
11598;SDS011;5855;48.840;9.188;2023-04-15T14:43:02;1.20;;;1.10;;
11598;SDS011;5855;48.840;9.188;2023-04-15T14:45:29;3.63;;;1.02;;
11598;SDS011;5855;48.840;9.188;2023-04-15T14:47:56;2.33;;;1.13;;
11598;SDS011;5855;48.840;9.188;2023-04-15T14:50:23;1.42;;;1.02;;
11598;SDS011;5855;48.840;9.188;2023-04-15T14:52:50;2.25;;;1.20;;
11598;SDS011;5855;48.840;9.188;2023-04-15T14:55:17;1.75;;;1.40;;
11598;SDS011;5855;48.840;9.188;2023-04-15T14:57:46;1.98;;;1.40;;
11598;SDS011;5855;48.840;9.188;2023-04-15T15:00:13;2.25;;;1.30;;
11598;SDS011;5855;48.840;9.188;2023-04-15T15:02:40;3.00;;;1.42;;
11598;SDS011;5855;48.840;9.188;2023-04-15T15:05:08;2.33;;;1.55;;
11598;SDS011;5855;48.840;9.188;2023-04-15T15:07:35;1.98;;;1.30;;
11598;SDS011;5855;48.840;9.188;2023-04-15T15:10:03;2.72;;;1.50;;
11598;SDS011;5855;48.840;9.188;2023-04-15T15:12:31;2.58;;;1.50;;